Waterford, Pennsylvania
Current Conditions -  °F | °C
As of 4:51 PM on Monday 20 Oct 2014 (Local Time) from KERI Reporting Station
Light Rain Light Rain  
Wind Chill: 55°   Ceiling: 6000
Heat Index: 55°   Visibility: 10mi
Dew Point: 45°   Wind: 17mph
Humidity: 69%   Direction: 180°S
Pressure: 29.81"   Gusts: NA
Location:  41.94°N, 79.98°W
Report Text: KERI 202051Z 18015KT 10SM -RA OVC060 13/07 A2981 RMK AO2 RAB42 SLP096 P0000 60000 T01280072 56013 $
Loading
Personal Weather Stations






























Interactive Weather Map
Tropical Storm Tracking
New forecast layout! Learn more

10-Day Weather Forecast

Advertisements
Track Severe Weather on mobile